Terminal Aerodrome Forecast
Issued by NWS Wilmington, OH

Current Version | Previous Version | Graphics & Text | Print | Product List | Glossary On
Versions: 1 2 3 4 5 6 7 8 9 10 11 12 13 14 15
000
FTUS41 KILN 171739
TAFILN
TAF
KILN 171739Z 1718/1818 28016G23KT P6SM BKN025
     FM172000 28015KT P6SM SCT040
     FM180100 VRB04KT P6SM FEW060
     FM181000 14005KT P6SM OVC050
     FM181500 16005KT P6SM BKN025=

USA.gov is the U.S. government's official web portal to all federal, state and local government web resources and services.